Azuma Maru No.18 — JD2963 — position and weather

sailwx.info

Track history (hours):
 
Tides and Currents Weather Stations Pressure Air Temp Water Temp Dewpoint Dewpoint Depression Visibility Wind Speed Wind Dir Waves Ship Positions

Azuma Maru No.18

Last reported at 2018-Feb-21 16:58 UTC. Time now 2018-Feb-21 17:24 UTC.
Position N 35°33' E 140°01'.

Length 105 m; draft 6.4 m.

Type: Tanker. MMSI: 431001096.

Date/timePositionNaut miles runAvg speedWind from/ knotsBaromVisibWave heightAir tempDewpointWater temp
2018-Feb-21 16:58N 35°33' E 140°01'0 0.0
2018-Feb-21 16:28N 35°33' E 140°01'0 0.1
2018-Feb-21 15:58N 35°33' E 140°01'0 0.0
2018-Feb-21 15:28N 35°33' E 140°01'2 5.2
2018-Feb-21 15:00N 35°32' E 139°58'613.0
2018-Feb-21 14:30N 35°28' E 139°52'713.3
2018-Feb-21 14:00N 35°24' E 139°46'611.9
2018-Feb-21 13:30N 35°18' E 139°45'611.9
2018-Feb-21 13:00N 35°12' E 139°47'714.6
2018-Feb-21 12:30N 35°05' E 139°45'815.1
2018-Feb-21 12:00N 35°01' E 139°38'814.0
2018-Feb-21 11:27N 34°56' E 139°30'714.0
2018-Feb-21 10:59N 34°52' E 139°24'713.9
2018-Feb-21 10:30N 34°47' E 139°18'913.8
2018-Feb-21 09:50N 34°41' E 139°10'412.7
2018-Feb-21 09:30N 34°38' E 139°06'713.5
2018-Feb-21 08:59N 34°33' E 138°60'714.0
2018-Feb-21 08:29N 34°33' E 138°52'714.6
2018-Feb-21 07:59N 34°32' E 138°42'18512.3
2018-Feb-20 16:54N 33°47' E 135°05'614.5
2018-Feb-20 16:30N 33°52' E 135°01'714.2
2018-Feb-20 16:00N 33°58' E 134°59'714.4
2018-Feb-20 15:30N 34°06' E 134°59'714.2
2018-Feb-20 15:00N 34°13' E 134°59'612.9
2018-Feb-20 14:30N 34°19' E 134°59'713.1
2018-Feb-20 14:00N 34°24' E 135°04'713.9
2018-Feb-20 13:30N 34°28' E 135°10'714.3
2018-Feb-20 13:00N 34°33' E 135°17'713.4
2018-Feb-20 12:30N 34°36' E 135°24'2 4.0
2018-Feb-20 11:58N 34°35' E 135°26'0 0.0
2018-Feb-20 11:25N 34°35' E 135°26'0 0.0
2018-Feb-20 10:55N 34°35' E 135°26'0 0.0
2018-Feb-20 10:28N 34°35' E 135°26'0 0.0
2018-Feb-20 09:58N 34°35' E 135°26'0 0.0
2018-Feb-20 09:28N 34°35' E 135°26'0 0.0
2018-Feb-20 08:58N 34°35' E 135°26'0 0.0
2018-Feb-20 08:28N 34°35' E 135°26'0 0.0
2018-Feb-20 07:58N 34°35' E 135°26'0 0.0
2018-Feb-20 07:28N 34°35' E 135°26'0 0.0
2018-Feb-20 06:55N 34°35' E 135°26'0 0.0
2018-Feb-20 06:28N 34°35' E 135°26'0 0.0
2018-Feb-20 05:55N 34°35' E 135°26'0 0.0
2018-Feb-20 05:28N 34°35' E 135°26'0 0.0
2018-Feb-20 04:55N 34°35' E 135°26'0 0.0
2018-Feb-20 04:28N 34°35' E 135°26'0 0.0
2018-Feb-20 03:55N 34°35' E 135°26'0 0.0
2018-Feb-20 03:28N 34°35' E 135°26'0 0.0
2018-Feb-20 02:58N 34°35' E 135°26'1 1.9
2018-Feb-20 02:30N 34°35' E 135°25'3 5.1
2018-Feb-20 02:00N 34°36' E 135°22'1 2.4
2018-Feb-20 01:30N 34°35' E 135°23'0 0.1
2018-Feb-20 01:00N 34°35' E 135°22'0 0.0
2018-Feb-20 00:30N 34°35' E 135°22'0 0.0
2018-Feb-20 00:00N 34°35' E 135°22'0 0.1
2018-Feb-19 23:30N 34°35' E 135°23'0 0.0
2018-Feb-19 23:00N 34°35' E 135°23'0 0.1
2018-Feb-19 22:30N 34°35' E 135°22'0 0.0
2018-Feb-19 22:00N 34°35' E 135°22'0 0.0
2018-Feb-19 21:30N 34°35' E 135°22'0 0.0
2018-Feb-19 21:00N 34°35' E 135°22'0 0.1
2018-Feb-19 20:30N 34°35' E 135°22'510.9
2018-Feb-19 20:00N 34°35' E 135°16'815.3
2018-Feb-19 19:31N 34°35' E 135°07'816.9
2018-Feb-19 19:00N 34°36' E 134°56'917.2
2018-Feb-19 18:30N 34°32' E 134°47'815.6
2018-Feb-19 18:00N 34°29' E 134°38'815.4
2018-Feb-19 17:30N 34°26' E 134°30'815.4
2018-Feb-19 17:00N 34°24' E 134°21'815.6
2018-Feb-19 16:30N 34°25' E 134°11'7513.4
2018-Feb-19 10:53N 34°00' E 132°45'514.7
2018-Feb-19 10:30N 33°56' E 132°41'914.8
2018-Feb-19 09:53N 33°50' E 132°33'614.8
2018-Feb-19 09:30N 33°46' E 132°27'1214.7
2018-Feb-19 08:43N 33°42' E 132°14'514.7
2018-Feb-19 08:23N 33°41' E 132°08'714.5
2018-Feb-19 07:55N 33°42' E 132°00'715.0
2018-Feb-19 07:29N 33°44' E 131°53'715.3
2018-Feb-19 06:59N 33°51' E 131°49'815.5
2018-Feb-19 06:30N 33°57' E 131°45'5 0.2
2018-Feb-18 06:45N 34°02' E 131°47'0 1.0
2018-Feb-18 06:29N 34°02' E 131°47'1 2.3
2018-Feb-18 05:54N 34°01' E 131°47'0 0.0
2018-Feb-18 05:30N 34°01' E 131°47'0 0.0
2018-Feb-18 05:00N 34°01' E 131°47'0 0.0
2018-Feb-18 04:30N 34°01' E 131°47'0 0.0
2018-Feb-18 04:00N 34°01' E 131°47'0 0.0
2018-Feb-18 03:30N 34°01' E 131°47'0 0.0
2018-Feb-18 02:51N 34°01' E 131°47'0 0.0
2018-Feb-18 02:30N 34°01' E 131°47'0 0.0
2018-Feb-18 02:00N 34°01' E 131°47'0 0.1
2018-Feb-18 01:09N 34°01' E 131°47'0 0.0
2018-Feb-18 00:57N 34°01' E 131°47'0 0.0
2018-Feb-18 00:30N 34°01' E 131°47'0 0.0
2018-Feb-18 00:00N 34°01' E 131°47'510.6
2018-Feb-17 23:29N 33°56' E 131°45'815.4
2018-Feb-17 23:00N 33°49' E 131°48'816.0
2018-Feb-17 22:30N 33°41' E 131°51'815.9
2018-Feb-17 22:00N 33°34' E 131°55'816.1
2018-Feb-17 21:29N 33°26' E 131°58'816.3
2018-Feb-17 21:01N 33°18' E 132°00'  
2018-Feb-13 09:48N 34°33' E 138°23'711.3
2018-Feb-13 09:13N 34°36' E 138°30'310.6
2018-Feb-13 08:55N 34°36' E 138°34'1310.5
2018-Feb-13 07:40N 34°33' E 138°49'210.0
2018-Feb-13 07:27N 34°33' E 138°52'4 9.4
2018-Feb-13 06:59N 34°33' E 138°57'4 9.5
2018-Feb-13 06:30N 34°36' E 139°01'711.2
2018-Feb-13 05:54N 34°41' E 139°06'1411.3
2018-Feb-13 04:37N 34°52' E 139°18'111.6
2018-Feb-13 04:30N 34°53' E 139°19'711.0
2018-Feb-13 03:54N 34°57' E 139°26'511.6
2018-Feb-13 03:31N 34°60' E 139°30'712.1
2018-Feb-13 02:56N 35°04' E 139°37'612.8
2018-Feb-13 02:28N 35°07' E 139°43'613.1
2018-Feb-13 02:00N 35°13' E 139°46'612.3
2018-Feb-13 01:30N 35°18' E 139°44'612.0
2018-Feb-13 01:01N 35°24' E 139°43'713.8
2018-Feb-13 00:30N 35°29' E 139°50'713.6
2018-Feb-12 23:58N 35°32' E 139°58'2 3.9
2018-Feb-12 23:29N 35°32' E 139°60'0 0.1
2018-Feb-12 22:56N 35°32' E 139°60'0 0.0
2018-Feb-12 22:29N 35°32' E 139°60'0 0.0
2018-Feb-12 21:59N 35°32' E 139°60'0 0.0
2018-Feb-12 21:29N 35°32' E 139°60'0 0.0
2018-Feb-12 20:59N 35°32' E 139°60'0 0.5
2018-Feb-12 20:30N 35°32' E 140°00'2 0.2
2018-Feb-12 05:13N 35°31' E 140°02'1 3.1
2018-Feb-12 05:01N 35°31' E 140°02'1 1.9
2018-Feb-12 04:30N 35°32' E 140°01'0 0.1
2018-Feb-12 04:00N 35°32' E 140°01'1 1.4
2018-Feb-12 03:28N 35°33' E 140°01'0 0.1
2018-Feb-12 02:58N 35°33' E 140°01'0 0.0
2018-Feb-12 02:28N 35°33' E 140°01'0 0.0
2018-Feb-12 01:58N 35°33' E 140°01'0 0.0
2018-Feb-12 01:28N 35°33' E 140°01'0 0.0
2018-Feb-12 00:52N 35°33' E 140°01'0 0.0
2018-Feb-12 00:28N 35°33' E 140°01'0 0.0
2018-Feb-11 23:58N 35°33' E 140°01'0 0.0
2018-Feb-11 23:28N 35°33' E 140°01'0 0.0
2018-Feb-11 22:52N 35°33' E 140°01'0 0.0
2018-Feb-11 22:28N 35°33' E 140°01'0 0.1
2018-Feb-11 21:58N 35°33' E 140°01'0 0.1
2018-Feb-11 21:22N 35°32' E 140°01'0 0.2
2018-Feb-11 20:58N 35°32' E 140°01'0 0.0
2018-Feb-11 20:28N 35°32' E 140°01'0 0.0
2018-Feb-11 19:58N 35°32' E 140°01'1 2.5
2018-Feb-11 19:31N 35°32' E 139°59'714.1
2018-Feb-11 19:00N 35°29' E 139°52'714.4
2018-Feb-11 18:30N 35°23' E 139°46'612.2
2018-Feb-11 18:00N 35°17' E 139°45'612.9
2018-Feb-11 17:30N 35°11' E 139°47'714.3
2018-Feb-11 17:00N 35°04' E 139°44'  
Track history (hours):
 
Tides and Currents Weather Stations Pressure Air Temp Water Temp Dewpoint Dewpoint Depression Visibility Wind Speed Wind Dir Waves Ship Positions

Azuma Maru No.18

Last reported at 2018-Feb-21 16:58 UTC. Time now 2018-Feb-21 17:24 UTC.
Position N 35°33' E 140°01'.

Length 105 m; draft 6.4 m.

Type: Tanker. MMSI: 431001096.

Date/timePositionNaut miles runAvg speedWind from/ knotsBaromVisibWave heightAir tempDewpointWater temp
2018-Feb-21 16:58N 35°33' E 140°01'0 0.0
2018-Feb-21 16:28N 35°33' E 140°01'0 0.1
2018-Feb-21 15:58N 35°33' E 140°01'0 0.0
2018-Feb-21 15:28N 35°33' E 140°01'2 5.2
2018-Feb-21 15:00N 35°32' E 139°58'613.0
2018-Feb-21 14:30N 35°28' E 139°52'713.3
2018-Feb-21 14:00N 35°24' E 139°46'611.9
2018-Feb-21 13:30N 35°18' E 139°45'611.9
2018-Feb-21 13:00N 35°12' E 139°47'714.6
2018-Feb-21 12:30N 35°05' E 139°45'815.1
2018-Feb-21 12:00N 35°01' E 139°38'814.0
2018-Feb-21 11:27N 34°56' E 139°30'714.0
2018-Feb-21 10:59N 34°52' E 139°24'713.9
2018-Feb-21 10:30N 34°47' E 139°18'913.8
2018-Feb-21 09:50N 34°41' E 139°10'412.7
2018-Feb-21 09:30N 34°38' E 139°06'713.5
2018-Feb-21 08:59N 34°33' E 138°60'714.0
2018-Feb-21 08:29N 34°33' E 138°52'714.6
2018-Feb-21 07:59N 34°32' E 138°42'18512.3
2018-Feb-20 16:54N 33°47' E 135°05'614.5
2018-Feb-20 16:30N 33°52' E 135°01'714.2
2018-Feb-20 16:00N 33°58' E 134°59'714.4
2018-Feb-20 15:30N 34°06' E 134°59'714.2
2018-Feb-20 15:00N 34°13' E 134°59'612.9
2018-Feb-20 14:30N 34°19' E 134°59'713.1
2018-Feb-20 14:00N 34°24' E 135°04'713.9
2018-Feb-20 13:30N 34°28' E 135°10'714.3
2018-Feb-20 13:00N 34°33' E 135°17'713.4
2018-Feb-20 12:30N 34°36' E 135°24'2 4.0
2018-Feb-20 11:58N 34°35' E 135°26'0 0.0
2018-Feb-20 11:25N 34°35' E 135°26'0 0.0
2018-Feb-20 10:55N 34°35' E 135°26'0 0.0
2018-Feb-20 10:28N 34°35' E 135°26'0 0.0
2018-Feb-20 09:58N 34°35' E 135°26'0 0.0
2018-Feb-20 09:28N 34°35' E 135°26'0 0.0
2018-Feb-20 08:58N 34°35' E 135°26'0 0.0
2018-Feb-20 08:28N 34°35' E 135°26'0 0.0
2018-Feb-20 07:58N 34°35' E 135°26'0 0.0
2018-Feb-20 07:28N 34°35' E 135°26'0 0.0
2018-Feb-20 06:55N 34°35' E 135°26'0 0.0
2018-Feb-20 06:28N 34°35' E 135°26'0 0.0
2018-Feb-20 05:55N 34°35' E 135°26'0 0.0
2018-Feb-20 05:28N 34°35' E 135°26'0 0.0
2018-Feb-20 04:55N 34°35' E 135°26'0 0.0
2018-Feb-20 04:28N 34°35' E 135°26'0 0.0
2018-Feb-20 03:55N 34°35' E 135°26'0 0.0
2018-Feb-20 03:28N 34°35' E 135°26'0 0.0
2018-Feb-20 02:58N 34°35' E 135°26'1 1.9
2018-Feb-20 02:30N 34°35' E 135°25'3 5.1
2018-Feb-20 02:00N 34°36' E 135°22'1 2.4
2018-Feb-20 01:30N 34°35' E 135°23'0 0.1
2018-Feb-20 01:00N 34°35' E 135°22'0 0.0
2018-Feb-20 00:30N 34°35' E 135°22'0 0.0
2018-Feb-20 00:00N 34°35' E 135°22'0 0.1
2018-Feb-19 23:30N 34°35' E 135°23'0 0.0
2018-Feb-19 23:00N 34°35' E 135°23'0 0.1
2018-Feb-19 22:30N 34°35' E 135°22'0 0.0
2018-Feb-19 22:00N 34°35' E 135°22'0 0.0
2018-Feb-19 21:30N 34°35' E 135°22'0 0.0
2018-Feb-19 21:00N 34°35' E 135°22'0 0.1
2018-Feb-19 20:30N 34°35' E 135°22'510.9
2018-Feb-19 20:00N 34°35' E 135°16'815.3
2018-Feb-19 19:31N 34°35' E 135°07'816.9
2018-Feb-19 19:00N 34°36' E 134°56'917.2
2018-Feb-19 18:30N 34°32' E 134°47'815.6
2018-Feb-19 18:00N 34°29' E 134°38'815.4
2018-Feb-19 17:30N 34°26' E 134°30'815.4
2018-Feb-19 17:00N 34°24' E 134°21'815.6
2018-Feb-19 16:30N 34°25' E 134°11'7513.4
2018-Feb-19 10:53N 34°00' E 132°45'514.7
2018-Feb-19 10:30N 33°56' E 132°41'914.8
2018-Feb-19 09:53N 33°50' E 132°33'614.8
2018-Feb-19 09:30N 33°46' E 132°27'1214.7
2018-Feb-19 08:43N 33°42' E 132°14'514.7
2018-Feb-19 08:23N 33°41' E 132°08'714.5
2018-Feb-19 07:55N 33°42' E 132°00'715.0
2018-Feb-19 07:29N 33°44' E 131°53'715.3
2018-Feb-19 06:59N 33°51' E 131°49'815.5
2018-Feb-19 06:30N 33°57' E 131°45'5 0.2
2018-Feb-18 06:45N 34°02' E 131°47'0 1.0
2018-Feb-18 06:29N 34°02' E 131°47'1 2.3
2018-Feb-18 05:54N 34°01' E 131°47'0 0.0
2018-Feb-18 05:30N 34°01' E 131°47'0 0.0
2018-Feb-18 05:00N 34°01' E 131°47'0 0.0
2018-Feb-18 04:30N 34°01' E 131°47'0 0.0
2018-Feb-18 04:00N 34°01' E 131°47'0 0.0
2018-Feb-18 03:30N 34°01' E 131°47'0 0.0
2018-Feb-18 02:51N 34°01' E 131°47'0 0.0
2018-Feb-18 02:30N 34°01' E 131°47'0 0.0
2018-Feb-18 02:00N 34°01' E 131°47'0 0.1
2018-Feb-18 01:09N 34°01' E 131°47'0 0.0
2018-Feb-18 00:57N 34°01' E 131°47'0 0.0
2018-Feb-18 00:30N 34°01' E 131°47'0 0.0
2018-Feb-18 00:00N 34°01' E 131°47'510.6
2018-Feb-17 23:29N 33°56' E 131°45'815.4
2018-Feb-17 23:00N 33°49' E 131°48'816.0
2018-Feb-17 22:30N 33°41' E 131°51'815.9
2018-Feb-17 22:00N 33°34' E 131°55'816.1
2018-Feb-17 21:29N 33°26' E 131°58'816.3
2018-Feb-17 21:01N 33°18' E 132°00'  
2018-Feb-13 09:48N 34°33' E 138°23'711.3
2018-Feb-13 09:13N 34°36' E 138°30'310.6
2018-Feb-13 08:55N 34°36' E 138°34'1310.5
2018-Feb-13 07:40N 34°33' E 138°49'210.0
2018-Feb-13 07:27N 34°33' E 138°52'4 9.4
2018-Feb-13 06:59N 34°33' E 138°57'4 9.5
2018-Feb-13 06:30N 34°36' E 139°01'711.2
2018-Feb-13 05:54N 34°41' E 139°06'1411.3
2018-Feb-13 04:37N 34°52' E 139°18'111.6
2018-Feb-13 04:30N 34°53' E 139°19'711.0
2018-Feb-13 03:54N 34°57' E 139°26'511.6
2018-Feb-13 03:31N 34°60' E 139°30'712.1
2018-Feb-13 02:56N 35°04' E 139°37'612.8
2018-Feb-13 02:28N 35°07' E 139°43'613.1
2018-Feb-13 02:00N 35°13' E 139°46'612.3
2018-Feb-13 01:30N 35°18' E 139°44'612.0
2018-Feb-13 01:01N 35°24' E 139°43'713.8
2018-Feb-13 00:30N 35°29' E 139°50'713.6
2018-Feb-12 23:58N 35°32' E 139°58'2 3.9
2018-Feb-12 23:29N 35°32' E 139°60'0 0.1
2018-Feb-12 22:56N 35°32' E 139°60'0 0.0
2018-Feb-12 22:29N 35°32' E 139°60'0 0.0
2018-Feb-12 21:59N 35°32' E 139°60'0 0.0
2018-Feb-12 21:29N 35°32' E 139°60'0 0.0
2018-Feb-12 20:59N 35°32' E 139°60'0 0.5
2018-Feb-12 20:30N 35°32' E 140°00'2 0.2
2018-Feb-12 05:13N 35°31' E 140°02'1 3.1
2018-Feb-12 05:01N 35°31' E 140°02'1 1.9
2018-Feb-12 04:30N 35°32' E 140°01'0 0.1
2018-Feb-12 04:00N 35°32' E 140°01'1 1.4
2018-Feb-12 03:28N 35°33' E 140°01'0 0.1
2018-Feb-12 02:58N 35°33' E 140°01'0 0.0
2018-Feb-12 02:28N 35°33' E 140°01'0 0.0
2018-Feb-12 01:58N 35°33' E 140°01'0 0.0
2018-Feb-12 01:28N 35°33' E 140°01'0 0.0
2018-Feb-12 00:52N 35°33' E 140°01'0 0.0
2018-Feb-12 00:28N 35°33' E 140°01'0 0.0
2018-Feb-11 23:58N 35°33' E 140°01'0 0.0
2018-Feb-11 23:28N 35°33' E 140°01'0 0.0
2018-Feb-11 22:52N 35°33' E 140°01'0 0.0
2018-Feb-11 22:28N 35°33' E 140°01'0 0.1
2018-Feb-11 21:58N 35°33' E 140°01'0 0.1
2018-Feb-11 21:22N 35°32' E 140°01'0 0.2
2018-Feb-11 20:58N 35°32' E 140°01'0 0.0
2018-Feb-11 20:28N 35°32' E 140°01'0 0.0
2018-Feb-11 19:58N 35°32' E 140°01'1 2.5
2018-Feb-11 19:31N 35°32' E 139°59'714.1
2018-Feb-11 19:00N 35°29' E 139°52'714.4
2018-Feb-11 18:30N 35°23' E 139°46'612.2
2018-Feb-11 18:00N 35°17' E 139°45'612.9
2018-Feb-11 17:30N 35°11' E 139°47'714.3
2018-Feb-11 17:00N 35°04' E 139°44'  

Dump ship's entire track history